sensor_id;sensor_type;location;lat;lon;timestamp;pressure;altitude;pressure_sealevel;temperature;humidity
34031;BME280;20319;28.466;-16.274;2024-03-08T00:02:14;96081.06;;;13.49;100.00
34031;BME280;20319;28.466;-16.274;2024-03-08T00:04:39;95979.94;;;12.91;100.00
34031;BME280;20319;28.466;-16.274;2024-03-08T00:07:05;96070.59;;;13.53;100.00
34031;BME280;20319;28.466;-16.274;2024-03-08T00:09:31;95921.94;;;12.54;100.00
34031;BME280;20319;28.466;-16.274;2024-03-08T00:11:57;96037.19;;;13.38;100.00
34031;BME280;20319;28.466;-16.274;2024-03-08T00:14:23;96063.63;;;13.57;100.00
34031;BME280;20319;28.466;-16.274;2024-03-08T00:16:49;96046.09;;;13.54;100.00
34031;BME280;20319;28.466;-16.274;2024-03-08T00:19:14;96005.91;;;13.22;100.00
34031;BME280;20319;28.466;-16.274;2024-03-08T00:21:40;96053.09;;;13.45;100.00
34031;BME280;20319;28.466;-16.274;2024-03-08T00:24:06;96063.38;;;13.58;100.00
34031;BME280;20319;28.466;-16.274;2024-03-08T00:26:32;96030.75;;;13.45;100.00
34031;BME280;20319;28.466;-16.274;2024-03-08T00:28:58;96046.38;;;13.53;100.00
34031;BME280;20319;28.466;-16.274;2024-03-08T00:31:24;96019.97;;;13.45;100.00
34031;BME280;20319;28.466;-16.274;2024-03-08T00:33:50;96038.84;;;13.50;100.00
34031;BME280;20319;28.466;-16.274;2024-03-08T00:36:16;95973.59;;;13.17;100.00
34031;BME280;20319;28.466;-16.274;2024-03-08T00:38:41;96034.00;;;13.62;100.00
34031;BME280;20319;28.466;-16.274;2024-03-08T00:41:07;95953.44;;;13.10;100.00
34031;BME280;20319;28.466;-16.274;2024-03-08T00:43:33;96019.72;;;13.51;100.00
34031;BME280;20319;28.466;-16.274;2024-03-08T00:45:59;96045.63;;;13.67;100.00
34031;BME280;20319;28.466;-16.274;2024-03-08T00:48:26;95974.44;;;13.23;100.00
34031;BME280;20319;28.466;-16.274;2024-03-08T00:50:52;96007.63;;;13.54;100.00
34031;BME280;20319;28.466;-16.274;2024-03-08T00:53:18;96026.50;;;13.69;100.00
34031;BME280;20319;28.466;-16.274;2024-03-08T00:55:43;95992.56;;;13.53;100.00
34031;BME280;20319;28.466;-16.274;2024-03-08T00:58:12;95995.31;;;13.68;100.00
34031;BME280;20319;28.466;-16.274;2024-03-08T01:00:37;95988.53;;;13.60;100.00
34031;BME280;20319;28.466;-16.274;2024-03-08T01:03:04;96017.91;;;13.77;100.00
34031;BME280;20319;28.466;-16.274;2024-03-08T01:05:30;95994.19;;;13.59;100.00
34031;BME280;20319;28.466;-16.274;2024-03-08T01:07:56;95961.84;;;13.33;100.00
34031;BME280;20319;28.466;-16.274;2024-03-08T01:10:21;96001.16;;;13.50;100.00
34031;BME280;20319;28.466;-16.274;2024-03-08T01:12:48;95926.25;;;13.06;100.00
34031;BME280;20319;28.466;-16.274;2024-03-08T01:15:15;96008.44;;;13.54;100.00
34031;BME280;20319;28.466;-16.274;2024-03-08T01:17:41;95918.38;;;12.95;100.00
34031;BME280;20319;28.466;-16.274;2024-03-08T01:20:07;95992.53;;;13.43;100.00
34031;BME280;20319;28.466;-16.274;2024-03-08T01:22:36;95965.03;;;13.25;100.00
34031;BME280;20319;28.466;-16.274;2024-03-08T01:25:02;95942.66;;;13.05;100.00
34031;BME280;20319;28.466;-16.274;2024-03-08T01:27:30;95980.13;;;13.26;100.00
34031;BME280;20319;28.466;-16.274;2024-03-08T01:29:56;96011.09;;;13.44;100.00
34031;BME280;20319;28.466;-16.274;2024-03-08T01:32:22;96000.59;;;13.43;100.00
34031;BME280;20319;28.466;-16.274;2024-03-08T01:34:49;96003.81;;;13.39;100.00
34031;BME280;20319;28.466;-16.274;2024-03-08T01:37:14;95931.53;;;12.96;100.00
34031;BME280;20319;28.466;-16.274;2024-03-08T01:39:40;95980.66;;;13.33;100.00
34031;BME280;20319;28.466;-16.274;2024-03-08T01:42:05;95993.88;;;13.45;100.00
34031;BME280;20319;28.466;-16.274;2024-03-08T01:44:31;95978.28;;;13.42;100.00
34031;BME280;20319;28.466;-16.274;2024-03-08T01:46:57;95991.19;;;13.40;100.00
34031;BME280;20319;28.466;-16.274;2024-03-08T01:49:24;95878.81;;;12.85;100.00
34031;BME280;20319;28.466;-16.274;2024-03-08T01:51:51;95877.72;;;12.76;100.00
34031;BME280;20319;28.466;-16.274;2024-03-08T01:54:18;95920.06;;;13.01;100.00
34031;BME280;20319;28.466;-16.274;2024-03-08T01:56:45;95986.09;;;13.44;100.00
34031;BME280;20319;28.466;-16.274;2024-03-08T01:59:11;95876.63;;;12.67;100.00
34031;BME280;20319;28.466;-16.274;2024-03-08T02:01:37;95977.72;;;13.40;100.00
34031;BME280;20319;28.466;-16.274;2024-03-08T02:04:03;95958.06;;;13.29;100.00
34031;BME280;20319;28.466;-16.274;2024-03-08T02:06:31;95957.28;;;13.34;100.00
34031;BME280;20319;28.466;-16.274;2024-03-08T02:08:57;95956.72;;;13.32;100.00
34031;BME280;20319;28.466;-16.274;2024-03-08T02:11:23;95960.75;;;13.39;100.00
34031;BME280;20319;28.466;-16.274;2024-03-08T02:13:49;95908.72;;;12.99;100.00
34031;BME280;20319;28.466;-16.274;2024-03-08T02:16:20;95950.78;;;13.30;100.00
34031;BME280;20319;28.466;-16.274;2024-03-08T02:18:46;95959.16;;;13.33;100.00
34031;BME280;20319;28.466;-16.274;2024-03-08T02:21:12;95934.38;;;13.21;100.00
34031;BME280;20319;28.466;-16.274;2024-03-08T02:23:38;95893.34;;;12.84;100.00
34031;BME280;20319;28.466;-16.274;2024-03-08T02:26:03;95953.22;;;13.36;100.00
34031;BME280;20319;28.466;-16.274;2024-03-08T02:28:30;95952.44;;;13.31;100.00
34031;BME280;20319;28.466;-16.274;2024-03-08T02:30:56;95862.41;;;12.77;100.00
34031;BME280;20319;28.466;-16.274;2024-03-08T02:33:22;95940.28;;;13.28;100.00
34031;BME280;20319;28.466;-16.274;2024-03-08T02:35:48;95948.09;;;13.30;100.00
34031;BME280;20319;28.466;-16.274;2024-03-08T02:38:16;95951.88;;;13.34;100.00
34031;BME280;20319;28.466;-16.274;2024-03-08T02:40:42;95847.09;;;12.72;100.00
34031;BME280;20319;28.466;-16.274;2024-03-08T02:43:09;95922.00;;;13.25;100.00
34031;BME280;20319;28.466;-16.274;2024-03-08T02:45:35;95921.44;;;13.23;100.00
34031;BME280;20319;28.466;-16.274;2024-03-08T02:48:01;95814.78;;;12.57;100.00
34031;BME280;20319;28.466;-16.274;2024-03-08T02:50:27;95937.09;;;13.36;100.00
34031;BME280;20319;28.466;-16.274;2024-03-08T02:52:54;95936.03;;;13.43;100.00
34031;BME280;20319;28.466;-16.274;2024-03-08T02:55:19;95822.38;;;12.75;100.00
34031;BME280;20319;28.466;-16.274;2024-03-08T02:57:46;95916.63;;;13.30;100.00
34031;BME280;20319;28.466;-16.274;2024-03-08T03:00:15;95941.13;;;13.44;100.00
34031;BME280;20319;28.466;-16.274;2024-03-08T03:02:41;95906.16;;;13.34;100.00
34031;BME280;20319;28.466;-16.274;2024-03-08T03:05:08;95941.41;;;13.43;100.00
34031;BME280;20319;28.466;-16.274;2024-03-08T03:07:35;95892.94;;;13.22;100.00
34031;BME280;20319;28.466;-16.274;2024-03-08T03:10:02;95900.78;;;13.29;100.00
34031;BME280;20319;28.466;-16.274;2024-03-08T03:12:28;95877.63;;;13.23;100.00
34031;BME280;20319;28.466;-16.274;2024-03-08T03:14:54;95751.84;;;12.38;100.00
34031;BME280;20319;28.466;-16.274;2024-03-08T03:17:19;95815.69;;;12.88;100.00
34031;BME280;20319;28.466;-16.274;2024-03-08T03:19:45;95813.22;;;12.76;100.00
34031;BME280;20319;28.466;-16.274;2024-03-08T03:22:12;95881.13;;;13.28;100.00
34031;BME280;20319;28.466;-16.274;2024-03-08T03:24:38;95902.41;;;13.45;100.00
34031;BME280;20319;28.466;-16.274;2024-03-08T03:27:04;95892.47;;;13.41;100.00
34031;BME280;20319;28.466;-16.274;2024-03-08T03:29:39;95794.97;;;12.83;100.00
34031;BME280;20319;28.466;-16.274;2024-03-08T03:32:08;95860.13;;;13.25;100.00
34031;BME280;20319;28.466;-16.274;2024-03-08T03:34:34;95911.03;;;13.47;100.00
34031;BME280;20319;28.466;-16.274;2024-03-08T03:37:03;95726.34;;;12.46;100.00
34031;BME280;20319;28.466;-16.274;2024-03-08T03:39:30;95872.25;;;13.23;100.00
34031;BME280;20319;28.466;-16.274;2024-03-08T03:42:00;95874.44;;;13.36;100.00
34031;BME280;20319;28.466;-16.274;2024-03-08T03:44:31;95885.44;;;13.45;100.00
34031;BME280;20319;28.466;-16.274;2024-03-08T03:46:57;95791.22;;;12.89;100.00
34031;BME280;20319;28.466;-16.274;2024-03-08T03:49:23;95871.47;;;13.38;100.00
34031;BME280;20319;28.466;-16.274;2024-03-08T03:51:49;95789.09;;;12.91;100.00
34031;BME280;20319;28.466;-16.274;2024-03-08T03:54:15;95858.78;;;13.33;100.00
34031;BME280;20319;28.466;-16.274;2024-03-08T03:56:40;95820.84;;;13.04;100.00
34031;BME280;20319;28.466;-16.274;2024-03-08T03:59:07;95873.63;;;13.46;100.00
34031;BME280;20319;28.466;-16.274;2024-03-08T04:01:33;95886.28;;;13.50;100.00
34031;BME280;20319;28.466;-16.274;2024-03-08T04:03:59;95888.69;;;13.47;100.00
34031;BME280;20319;28.466;-16.274;2024-03-08T04:06:25;95874.69;;;13.45;100.00
34031;BME280;20319;28.466;-16.274;2024-03-08T04:08:50;95780.47;;;12.89;100.00
34031;BME280;20319;28.466;-16.274;2024-03-08T04:11:16;95777.75;;;12.84;100.00
34031;BME280;20319;28.466;-16.274;2024-03-08T04:13:45;95755.72;;;12.72;100.00
34031;BME280;20319;28.466;-16.274;2024-03-08T04:16:10;95774.81;;;12.86;100.00
34031;BME280;20319;28.466;-16.274;2024-03-08T04:18:37;95847.53;;;13.36;100.00
34031;BME280;20319;28.466;-16.274;2024-03-08T04:21:04;95858.81;;;13.43;100.00
34031;BME280;20319;28.466;-16.274;2024-03-08T04:23:32;95883.84;;;13.49;100.00
34031;BME280;20319;28.466;-16.274;2024-03-08T04:26:01;95855.34;;;13.38;100.00
34031;BME280;20319;28.466;-16.274;2024-03-08T04:28:27;95840.00;;;13.28;100.00
34031;BME280;20319;28.466;-16.274;2024-03-08T04:30:53;95856.66;;;13.35;100.00
34031;BME280;20319;28.466;-16.274;2024-03-08T04:33:20;95777.22;;;12.87;100.00
34031;BME280;20319;28.466;-16.274;2024-03-08T04:35:47;95856.94;;;13.33;100.00
34031;BME280;20319;28.466;-16.274;2024-03-08T04:38:12;95854.78;;;13.35;100.00
34031;BME280;20319;28.466;-16.274;2024-03-08T04:40:38;95774.53;;;12.82;100.00
34031;BME280;20319;28.466;-16.274;2024-03-08T04:43:05;95842.69;;;13.28;100.00
34031;BME280;20319;28.466;-16.274;2024-03-08T04:45:30;95837.81;;;13.15;100.00
34031;BME280;20319;28.466;-16.274;2024-03-08T04:47:56;95802.25;;;12.93;100.00
34031;BME280;20319;28.466;-16.274;2024-03-08T04:50:22;95836.22;;;13.29;100.00
34031;BME280;20319;28.466;-16.274;2024-03-08T04:52:47;95851.28;;;13.30;100.00
34031;BME280;20319;28.466;-16.274;2024-03-08T04:55:14;95847.78;;;13.29;100.00
34031;BME280;20319;28.466;-16.274;2024-03-08T04:57:39;95737.44;;;12.64;100.00
34031;BME280;20319;28.466;-16.274;2024-03-08T05:00:05;95759.75;;;12.75;100.00
34031;BME280;20319;28.466;-16.274;2024-03-08T05:02:39;95763.25;;;12.75;100.00
34031;BME280;20319;28.466;-16.274;2024-03-08T05:05:05;95744.97;;;12.67;100.00
34031;BME280;20319;28.466;-16.274;2024-03-08T05:07:31;95678.78;;;12.26;100.00
34031;BME280;20319;28.466;-16.274;2024-03-08T05:09:58;95810.09;;;13.14;100.00
34031;BME280;20319;28.466;-16.274;2024-03-08T05:12:24;95823.03;;;13.22;100.00
34031;BME280;20319;28.466;-16.274;2024-03-08T05:14:50;95751.41;;;12.76;100.00
34031;BME280;20319;28.466;-16.274;2024-03-08T05:17:16;95843.47;;;13.33;100.00
34031;BME280;20319;28.466;-16.274;2024-03-08T05:19:45;95803.91;;;13.14;100.00
34031;BME280;20319;28.466;-16.274;2024-03-08T05:22:10;95840.25;;;13.36;100.00
34031;BME280;20319;28.466;-16.274;2024-03-08T05:24:36;95831.09;;;13.27;100.00
34031;BME280;20319;28.466;-16.274;2024-03-08T05:27:02;95847.78;;;13.34;100.00
34031;BME280;20319;28.466;-16.274;2024-03-08T05:29:29;95822.47;;;13.25;100.00
34031;BME280;20319;28.466;-16.274;2024-03-08T05:31:55;95746.31;;;12.80;100.00
34031;BME280;20319;28.466;-16.274;2024-03-08T05:34:21;95830.00;;;13.28;100.00
34031;BME280;20319;28.466;-16.274;2024-03-08T05:36:50;95736.88;;;12.62;100.00
34031;BME280;20319;28.466;-16.274;2024-03-08T05:39:16;95840.75;;;13.23;100.00
34031;BME280;20319;28.466;-16.274;2024-03-08T05:41:43;95799.56;;;12.98;100.00
34031;BME280;20319;28.466;-16.274;2024-03-08T05:44:09;95832.69;;;13.08;100.00
34031;BME280;20319;28.466;-16.274;2024-03-08T05:46:36;95846.16;;;13.13;100.00
34031;BME280;20319;28.466;-16.274;2024-03-08T05:49:02;95816.00;;;13.01;100.00
34031;BME280;20319;28.466;-16.274;2024-03-08T05:51:34;95835.38;;;13.08;100.00
34031;BME280;20319;28.466;-16.274;2024-03-08T05:54:01;95831.06;;;13.07;100.00
34031;BME280;20319;28.466;-16.274;2024-03-08T05:56:29;95809.22;;;12.89;100.00
34031;BME280;20319;28.466;-16.274;2024-03-08T05:58:55;95740.06;;;12.49;100.00
34031;BME280;20319;28.466;-16.274;2024-03-08T06:01:22;95812.47;;;12.91;100.00
34031;BME280;20319;28.466;-16.274;2024-03-08T06:03:47;95822.13;;;12.92;100.00
34031;BME280;20319;28.466;-16.274;2024-03-08T06:06:14;95760.75;;;12.54;100.00
34031;BME280;20319;28.466;-16.274;2024-03-08T06:08:43;95832.34;;;12.90;100.00
34031;BME280;20319;28.466;-16.274;2024-03-08T06:11:09;95752.94;;;12.37;100.00
34031;BME280;20319;28.466;-16.274;2024-03-08T06:13:35;95853.31;;;12.88;100.00
34031;BME280;20319;28.466;-16.274;2024-03-08T06:16:01;95853.06;;;12.94;100.00
34031;BME280;20319;28.466;-16.274;2024-03-08T06:18:30;95748.63;;;12.36;100.00
34031;BME280;20319;28.466;-16.274;2024-03-08T06:20:56;95819.69;;;12.85;100.00
34031;BME280;20319;28.466;-16.274;2024-03-08T06:23:22;95820.50;;;12.81;100.00
34031;BME280;20319;28.466;-16.274;2024-03-08T06:25:48;95841.22;;;12.90;100.00
34031;BME280;20319;28.466;-16.274;2024-03-08T06:28:14;95846.59;;;12.90;100.00
34031;BME280;20319;28.466;-16.274;2024-03-08T06:30:40;95859.56;;;13.03;100.00
34031;BME280;20319;28.466;-16.274;2024-03-08T06:33:06;95846.34;;;12.97;100.00
34031;BME280;20319;28.466;-16.274;2024-03-08T06:35:36;95713.66;;;12.16;100.00
34031;BME280;20319;28.466;-16.274;2024-03-08T06:38:04;95862.81;;;13.05;100.00
34031;BME280;20319;28.466;-16.274;2024-03-08T06:40:29;95796.28;;;12.66;100.00
34031;BME280;20319;28.466;-16.274;2024-03-08T06:42:55;95775.25;;;12.48;100.00
34031;BME280;20319;28.466;-16.274;2024-03-08T06:45:21;95882.19;;;13.17;100.00
34031;BME280;20319;28.466;-16.274;2024-03-08T06:47:48;95878.41;;;13.13;100.00
34031;BME280;20319;28.466;-16.274;2024-03-08T06:50:14;95892.38;;;13.15;100.00
34031;BME280;20319;28.466;-16.274;2024-03-08T06:52:41;95895.34;;;13.14;100.00
34031;BME280;20319;28.466;-16.274;2024-03-08T06:55:11;95871.09;;;12.99;100.00
34031;BME280;20319;28.466;-16.274;2024-03-08T06:57:40;95826.63;;;12.66;100.00
34031;BME280;20319;28.466;-16.274;2024-03-08T07:00:07;95807.81;;;12.61;100.00
34031;BME280;20319;28.466;-16.274;2024-03-08T07:02:40;95867.31;;;13.00;100.00
34031;BME280;20319;28.466;-16.274;2024-03-08T07:05:06;95902.34;;;13.15;100.00
34031;BME280;20319;28.466;-16.274;2024-03-08T07:07:36;95899.41;;;13.16;100.00
34031;BME280;20319;28.466;-16.274;2024-03-08T07:10:02;95898.56;;;13.16;100.00
34031;BME280;20319;28.466;-16.274;2024-03-08T07:12:28;95873.53;;;13.00;100.00
34031;BME280;20319;28.466;-16.274;2024-03-08T07:14:54;95892.41;;;13.10;100.00
34031;BME280;20319;28.466;-16.274;2024-03-08T07:17:19;95864.88;;;12.98;100.00
34031;BME280;20319;28.466;-16.274;2024-03-08T07:19:45;95877.28;;;13.04;100.00
34031;BME280;20319;28.466;-16.274;2024-03-08T07:22:11;95868.63;;;12.92;100.00
34031;BME280;20319;28.466;-16.274;2024-03-08T07:24:36;95896.13;;;13.09;100.00
34031;BME280;20319;28.466;-16.274;2024-03-08T07:27:04;95860.00;;;12.80;100.00
34031;BME280;20319;28.466;-16.274;2024-03-08T07:29:30;95834.66;;;12.56;100.00
34031;BME280;20319;28.466;-16.274;2024-03-08T07:31:56;95834.91;;;12.50;100.00
34031;BME280;20319;28.466;-16.274;2024-03-08T07:34:44;95826.53;;;12.41;100.00
34031;BME280;20319;28.466;-16.274;2024-03-08T07:37:10;95919.19;;;12.95;100.00
34031;BME280;20319;28.466;-16.274;2024-03-08T07:39:39;95920.25;;;12.89;100.00
34031;BME280;20319;28.466;-16.274;2024-03-08T07:42:05;95909.50;;;12.89;100.00
34031;BME280;20319;28.466;-16.274;2024-03-08T07:44:30;95925.13;;;12.97;100.00
34031;BME280;20319;28.466;-16.274;2024-03-08T07:46:58;95897.91;;;12.89;100.00
34031;BME280;20319;28.466;-16.274;2024-03-08T07:49:24;95931.38;;;13.13;100.00
34031;BME280;20319;28.466;-16.274;2024-03-08T07:51:49;95943.22;;;13.17;100.00
34031;BME280;20319;28.466;-16.274;2024-03-08T07:54:15;95954.25;;;13.20;100.00
34031;BME280;20319;28.466;-16.274;2024-03-08T07:56:41;95871.78;;;12.74;100.00
34031;BME280;20319;28.466;-16.274;2024-03-08T07:59:07;95923.56;;;13.11;100.00
34031;BME280;20319;28.466;-16.274;2024-03-08T08:01:33;95945.69;;;13.28;100.00
34031;BME280;20319;28.466;-16.274;2024-03-08T08:03:59;95872.91;;;12.88;100.00
34031;BME280;20319;28.466;-16.274;2024-03-08T08:06:27;95954.88;;;13.38;100.00
34031;BME280;20319;28.466;-16.274;2024-03-08T08:08:53;95945.16;;;13.36;100.00
34031;BME280;20319;28.466;-16.274;2024-03-08T08:11:19;95843.06;;;12.80;100.00
34031;BME280;20319;28.466;-16.274;2024-03-08T08:13:45;95929.00;;;13.26;100.00
34031;BME280;20319;28.466;-16.274;2024-03-08T08:16:11;95931.72;;;13.36;100.00
34031;BME280;20319;28.466;-16.274;2024-03-08T08:18:38;95957.03;;;13.51;100.00
34031;BME280;20319;28.466;-16.274;2024-03-08T08:21:05;95934.16;;;13.43;100.00
34031;BME280;20319;28.466;-16.274;2024-03-08T08:23:33;95950.59;;;13.57;100.00
34031;BME280;20319;28.466;-16.274;2024-03-08T08:25:59;95955.16;;;13.56;100.00
34031;BME280;20319;28.466;-16.274;2024-03-08T08:28:26;95873.56;;;13.05;100.00
34031;BME280;20319;28.466;-16.274;2024-03-08T08:30:52;95952.22;;;13.58;100.00
34031;BME280;20319;28.466;-16.274;2024-03-08T08:33:18;95951.13;;;13.49;100.00
34031;BME280;20319;28.466;-16.274;2024-03-08T08:35:43;95923.13;;;13.45;100.00
34031;BME280;20319;28.466;-16.274;2024-03-08T08:38:09;95960.84;;;13.75;100.00
34031;BME280;20319;28.466;-16.274;2024-03-08T08:40:34;95958.41;;;13.73;100.00
34031;BME280;20319;28.466;-16.274;2024-03-08T08:43:02;95966.25;;;13.85;100.00
34031;BME280;20319;28.466;-16.274;2024-03-08T08:45:33;95951.41;;;13.82;100.00
34031;BME280;20319;28.466;-16.274;2024-03-08T08:47:59;95937.44;;;13.80;100.00
34031;BME280;20319;28.466;-16.274;2024-03-08T08:50:27;95975.69;;;14.07;100.00
34031;BME280;20319;28.466;-16.274;2024-03-08T08:52:54;95974.59;;;14.13;100.00
34031;BME280;20319;28.466;-16.274;2024-03-08T08:55:20;95921.56;;;13.84;100.00
34031;BME280;20319;28.466;-16.274;2024-03-08T08:57:48;95960.34;;;14.03;100.00
34031;BME280;20319;28.466;-16.274;2024-03-08T09:00:14;95971.09;;;14.18;100.00
34031;BME280;20319;28.466;-16.274;2024-03-08T09:02:41;95903.00;;;13.77;100.00
34031;BME280;20319;28.466;-16.274;2024-03-08T09:05:07;95987.28;;;14.23;100.00
34031;BME280;20319;28.466;-16.274;2024-03-08T09:07:37;95975.44;;;14.29;100.00
34031;BME280;20319;28.466;-16.274;2024-03-08T09:10:03;95956.53;;;14.19;100.00
34031;BME280;20319;28.466;-16.274;2024-03-08T09:12:29;95972.19;;;14.32;100.00
34031;BME280;20319;28.466;-16.274;2024-03-08T09:14:54;95980.28;;;14.32;100.00
34031;BME280;20319;28.466;-16.274;2024-03-08T09:17:20;95975.16;;;14.35;100.00
34031;BME280;20319;28.466;-16.274;2024-03-08T09:19:49;95925.84;;;14.10;100.00
34031;BME280;20319;28.466;-16.274;2024-03-08T09:22:15;95910.50;;;14.15;100.00
34031;BME280;20319;28.466;-16.274;2024-03-08T09:24:41;95987.78;;;14.65;100.00
34031;BME280;20319;28.466;-16.274;2024-03-08T09:27:08;95994.81;;;14.71;100.00
34031;BME280;20319;28.466;-16.274;2024-03-08T09:29:35;95996.41;;;14.82;100.00
34031;BME280;20319;28.466;-16.274;2024-03-08T20:24:28;95778.28;;;12.76;100.00
34031;BME280;20319;28.466;-16.274;2024-03-08T20:26:54;95760.53;;;12.65;100.00
34031;BME280;20319;28.466;-16.274;2024-03-08T20:29:20;95761.63;;;12.74;100.00
34031;BME280;20319;28.466;-16.274;2024-03-08T20:31:46;95811.44;;;13.07;100.00
34031;BME280;20319;28.466;-16.274;2024-03-08T20:34:11;95789.34;;;12.95;100.00
34031;BME280;20319;28.466;-16.274;2024-03-08T20:36:39;95817.09;;;13.15;100.00
34031;BME280;20319;28.466;-16.274;2024-03-08T20:39:08;95796.63;;;13.04;100.00
34031;BME280;20319;28.466;-16.274;2024-03-08T20:41:35;95723.97;;;12.59;100.00
34031;BME280;20319;28.466;-16.274;2024-03-08T20:44:01;95755.19;;;12.80;100.00
34031;BME280;20319;28.466;-16.274;2024-03-08T20:46:30;95746.56;;;12.73;100.00
34031;BME280;20319;28.466;-16.274;2024-03-08T20:48:55;95723.47;;;12.67;100.00
34031;BME280;20319;28.466;-16.274;2024-03-08T20:51:21;95827.31;;;13.28;100.00
34031;BME280;20319;28.466;-16.274;2024-03-08T20:53:46;95803.13;;;13.13;100.00
34031;BME280;20319;28.466;-16.274;2024-03-08T20:56:12;95787.53;;;13.05;100.00
34031;BME280;20319;28.466;-16.274;2024-03-08T20:58:40;95814.94;;;13.22;100.00
34031;BME280;20319;28.466;-16.274;2024-03-08T21:01:06;95834.06;;;13.26;100.00
34031;BME280;20319;28.466;-16.274;2024-03-08T21:03:34;95827.88;;;13.30;100.00
34031;BME280;20319;28.466;-16.274;2024-03-08T21:05:59;95835.69;;;13.32;100.00
34031;BME280;20319;28.466;-16.274;2024-03-08T21:08:25;95815.22;;;13.16;100.00
34031;BME280;20319;28.466;-16.274;2024-03-08T21:10:54;95762.97;;;12.87;100.00
